createdAt,value
2022-12-26T00:12:01.501Z,7
2022-12-26T00:40:40.309Z,6
2022-12-26T01:09:26.158Z,6
2022-12-26T01:38:15.454Z,5
2022-12-26T02:07:03.219Z,4
2022-12-26T02:35:51.409Z,6
2022-12-26T03:04:39.803Z,4
2022-12-26T03:33:26.551Z,4
2022-12-26T04:02:10.560Z,6
2022-12-26T04:30:52.626Z,4
2022-12-26T04:59:37.867Z,4
2022-12-26T05:28:24.972Z,4
2022-12-26T05:57:12.078Z,4
2022-12-26T06:25:54.338Z,4
2022-12-26T06:54:43.448Z,4
2022-12-26T07:23:31.829Z,4
2022-12-26T07:52:20.564Z,4
2022-12-26T08:20:50.112Z,4
2022-12-26T08:49:26.686Z,4
2022-12-26T09:18:05.708Z,4
2022-12-26T09:46:39.445Z,4
2022-12-26T10:15:24.565Z,4
2022-12-26T10:44:08.002Z,4
2022-12-26T11:12:49.016Z,13
2022-12-26T11:41:23.226Z,14
2022-12-26T12:10:04.994Z,22
2022-12-26T12:38:56.443Z,14
2022-12-26T13:07:25.384Z,13
2022-12-26T13:36:12.111Z,13
2022-12-26T14:05:04.695Z,13
2022-12-26T14:33:41.857Z,11
2022-12-26T15:02:28.941Z,9
2022-12-26T15:31:08.497Z,10
2022-12-26T15:59:54.141Z,11
2022-12-26T16:28:44.534Z,11
2022-12-26T16:57:37.841Z,9
2022-12-26T17:26:12.216Z,7
2022-12-26T17:54:53.464Z,7
2022-12-26T18:23:42.292Z,7
2022-12-26T18:52:38.096Z,6
2022-12-26T19:21:35.751Z,7
2022-12-26T19:50:12.594Z,6
2022-12-26T20:18:59.138Z,6
2022-12-26T20:47:56.001Z,4
2022-12-26T21:16:42.106Z,5
2022-12-26T21:45:21.168Z,4
2022-12-26T22:14:17.894Z,7
2022-12-26T22:43:11.241Z,5
2022-12-26T23:12:04.172Z,6
2022-12-26T23:41:02.632Z,4
